Goldbond, Virginia
Current Conditions -  °F | °C
As of 3:35 AM on Friday 28 Nov 2014 (Local Time) from KPSK Reporting Station
Overcast Overcast  
Wind Chill: 20°   Ceiling: 3500
Heat Index: 29°   Visibility: 10mi
Dew Point: 19°   Wind: 10mph
Humidity: 65%   Direction: 300°WNW
Pressure: 30.25"   Gusts: 17mph
Location:  37.38°N, 80.66°W
Report Text: KPSK 280835Z AUTO 30009G15KT 10SM OVC035 M02/M07 A3025 RMK AO2 T10161075
Loading
Personal Weather Stations






























Interactive Weather Map New forecast layout! Learn more

10-Day Weather Forecast

Advertisements
Track Severe Weather on mobile